Time;durP1;ratioP1;P1;durP2;ratioP2;P2;SDS_P1;SDS_P2;PMS_P1;PMS_P2;Temp;Humidity;BMP_temperature;BMP_pressure;BME280_temperature;BME280_humidity;BME280_pressure;Samples;Min_cycle;Max_cycle;Signal;HPM_P1;HPM_P2
2023/07/26 00:00:12;;;;;;;4.55;3.30;;;21.30;73.60;;;;;;5016645;28;20064;-61
2023/07/26 00:02:38;;;;;;;4.43;3.28;;;21.10;73.90;;;;;;5016524;28;20454;-64
2023/07/26 00:05:04;;;;;;;5.45;3.20;;;21.00;74.20;;;;;;5016315;28;20030;-65
2023/07/26 00:07:30;;;;;;;6.72;3.45;;;20.90;74.70;;;;;;5016437;28;20057;-63
2023/07/26 00:09:56;;;;;;;5.90;3.50;;;21.00;75.10;;;;;;5015229;28;20472;-62
2023/07/26 00:12:22;;;;;;;6.18;3.40;;;21.00;74.90;;;;;;5016385;28;20026;-63
2023/07/26 00:14:48;;;;;;;5.72;3.75;;;21.00;74.10;;;;;;5015075;28;20029;-67
2023/07/26 00:17:14;;;;;;;6.57;3.20;;;20.90;74.30;;;;;;5016053;28;20111;-66
2023/07/26 00:19:40;;;;;;;6.55;3.42;;;20.80;74.40;;;;;;5017102;28;20025;-63
2023/07/26 00:22:06;;;;;;;5.57;3.35;;;20.80;74.60;;;;;;5016242;28;20029;-64
2023/07/26 00:24:32;;;;;;;4.93;3.20;;;20.70;74.70;;;;;;5015966;28;20018;-64
2023/07/26 00:26:58;;;;;;;5.07;2.80;;;20.70;74.90;;;;;;5016351;28;20069;-63
2023/07/26 00:29:26;;;;;;;4.03;2.83;;;20.80;75.10;;;;;;5016366;28;20049;-64
2023/07/26 00:31:52;;;;;;;5.90;2.95;;;20.70;75.30;;;;;;5015825;28;20026;-65
2023/07/26 00:34:18;;;;;;;4.88;2.95;;;20.80;75.40;;;;;;5016299;28;20502;-63
2023/07/26 00:36:44;;;;;;;4.40;3.10;;;20.70;75.40;;;;;;5015632;28;20026;-63
2023/07/26 00:39:11;;;;;;;7.50;3.30;;;20.80;75.60;;;;;;5015980;28;20045;-63
2023/07/26 00:41:37;;;;;;;4.88;3.08;;;20.80;75.80;;;;;;5015682;28;20109;-66
2023/07/26 00:44:04;;;;;;;4.90;3.67;;;20.80;75.70;;;;;;5015939;28;20072;-67
2023/07/26 00:46:30;;;;;;;5.50;3.05;;;20.80;75.80;;;;;;5015653;28;20022;-64
2023/07/26 00:48:58;;;;;;;4.57;2.95;;;20.80;75.80;;;;;;5015588;28;20029;-65
2023/07/26 00:51:25;;;;;;;5.25;3.30;;;20.80;75.90;;;;;;5015841;28;20041;-64
2023/07/26 00:53:52;;;;;;;4.72;2.95;;;20.80;75.90;;;;;;5016035;28;20041;-63
2023/07/26 00:56:17;;;;;;;4.70;2.92;;;20.80;75.80;;;;;;5015238;28;20045;-64
2023/07/26 00:58:43;;;;;;;6.03;3.20;;;20.70;75.90;;;;;;5015964;28;20127;-63
2023/07/26 01:01:10;;;;;;;5.30;3.38;;;20.70;76.20;;;;;;5015719;28;20044;-67
2023/07/26 01:03:36;;;;;;;5.43;3.50;;;20.80;76.30;;;;;;5015530;28;20033;-64
2023/07/26 01:06:14;;;;;;;7.25;4.22;;;20.90;76.20;;;;;;5015343;28;20036;-66
2023/07/26 01:09:12;;;;;;;5.40;3.45;;;20.90;76.20;;;;;;5015533;28;20037;-64
2023/07/26 01:12:02;;;;;;;8.77;3.88;;;20.70;76.20;;;;;;5015827;28;20391;-64
2023/07/26 01:14:41;;;;;;;4.80;3.25;;;20.70;76.60;;;;;;5015845;28;20072;-63
2023/07/26 01:17:08;;;;;;;6.68;4.18;;;20.80;76.90;;;;;;5015351;28;20034;-64
2023/07/26 01:19:34;;;;;;;5.93;3.58;;;20.90;76.90;;;;;;5015269;28;20097;-65
2023/07/26 01:22:00;;;;;;;6.75;3.90;;;20.90;76.70;;;;;;5015426;28;20053;-65
2023/07/26 01:24:26;;;;;;;6.35;3.72;;;20.90;76.60;;;;;;5015143;28;20037;-63
2023/07/26 01:26:52;;;;;;;8.18;4.05;;;21.10;76.40;;;;;;5015304;28;20018;-63
2023/07/26 01:29:18;;;;;;;6.97;3.72;;;21.20;76.00;;;;;;5015213;28;20080;-65
2023/07/26 01:31:45;;;;;;;5.97;2.95;;;21.20;75.90;;;;;;5015075;28;20072;-64
2023/07/26 01:34:12;;;;;;;4.50;3.15;;;21.20;75.80;;;;;;5015383;28;20034;-64
2023/07/26 01:36:39;;;;;;;5.57;3.25;;;21.00;75.90;;;;;;5015296;28;20026;-62
2023/07/26 01:39:06;;;;;;;7.15;3.40;;;20.90;76.00;;;;;;5015033;28;20026;-65
2023/07/26 01:41:33;;;;;;;7.10;3.53;;;20.90;76.20;;;;;;5015329;28;20026;-62
2023/07/26 01:43:59;;;;;;;7.30;3.80;;;20.80;76.30;;;;;;5014948;28;20029;-65
2023/07/26 01:46:25;;;;;;;7.22;3.65;;;20.70;76.50;;;;;;5015467;28;20032;-63
2023/07/26 01:48:51;;;;;;;4.35;3.08;;;20.60;76.80;;;;;;5014996;28;20032;-65
2023/07/26 01:51:16;;;;;;;5.88;3.70;;;20.50;76.90;;;;;;5014960;28;20018;-66
2023/07/26 01:53:43;;;;;;;4.68;3.03;;;20.40;77.10;;;;;;5014933;28;20088;-61
2023/07/26 01:56:09;;;;;;;5.70;3.40;;;20.40;77.20;;;;;;5014865;28;20117;-64
2023/07/26 01:58:35;;;;;;;5.50;3.58;;;20.40;77.20;;;;;;5015124;28;20038;-62
2023/07/26 02:01:04;;;;;;;6.03;3.50;;;20.40;77.30;;;;;;5014908;28;20514;-61
2023/07/26 02:03:30;;;;;;;6.05;3.42;;;20.40;77.30;;;;;;5013747;28;20026;-63
2023/07/26 02:05:56;;;;;;;8.27;4.10;;;20.40;77.30;;;;;;5014962;28;20065;-63
2023/07/26 02:08:22;;;;;;;8.63;5.03;;;20.40;77.40;;;;;;5017090;28;20022;-64
2023/07/26 02:10:48;;;;;;;7.55;4.60;;;20.30;77.30;;;;;;4979376;28;20054;-63
2023/07/26 02:13:14;;;;;;;6.93;3.67;;;20.20;77.30;;;;;;4979360;28;20055;-63
2023/07/26 02:15:40;;;;;;;7.75;4.13;;;20.20;77.40;;;;;;4979246;28;20026;-64
2023/07/26 02:18:06;;;;;;;10.25;5.50;;;20.10;77.50;;;;;;4979744;28;20038;-64
2023/07/26 02:20:33;;;;;;;9.60;5.03;;;20.00;77.60;;;;;;4979466;28;20027;-67
2023/07/26 02:22:59;;;;;;;10.25;5.32;;;20.00;77.60;;;;;;4979030;28;20337;-64
2023/07/26 02:25:25;;;;;;;10.55;5.75;;;19.90;77.70;;;;;;4979070;28;20033;-66
2023/07/26 02:27:51;;;;;;;10.68;5.68;;;19.90;77.70;;;;;;4994299;28;20018;-64
2023/07/26 02:30:17;;;;;;;7.13;4.80;;;19.80;77.80;;;;;;4979538;28;20031;-66
2023/07/26 02:32:43;;;;;;;10.65;6.05;;;19.80;77.90;;;;;;4979184;28;20102;-63
2023/07/26 02:35:09;;;;;;;9.73;5.93;;;19.80;77.90;;;;;;4979176;28;20357;-65
2023/07/26 02:37:35;;;;;;;9.23;6.05;;;19.70;78.00;;;;;;4978840;28;20109;-64
2023/07/26 02:40:01;;;;;;;10.52;5.65;;;19.70;78.00;;;;;;4978813;28;20033;-59
2023/07/26 02:42:28;;;;;;;11.60;6.88;;;19.60;78.10;;;;;;4978732;28;20041;-63
2023/07/26 02:44:55;;;;;;;10.40;6.22;;;19.60;78.20;;;;;;4978786;28;20045;-62
2023/07/26 02:47:21;;;;;;;8.73;5.65;;;19.50;78.20;;;;;;4978665;28;20433;-63
2023/07/26 02:49:47;;;;;;;12.70;6.43;;;19.50;78.30;;;;;;4978737;28;20023;-62
2023/07/26 02:52:13;;;;;;;10.82;7.18;;;19.50;78.30;;;;;;4978962;28;20034;-65
2023/07/26 02:54:39;;;;;;;13.88;7.63;;;19.40;78.30;;;;;;4978646;28;20039;-63
2023/07/26 02:57:06;;;;;;;9.50;6.22;;;19.40;78.40;;;;;;4978578;28;20022;-64
2023/07/26 02:59:31;;;;;;;11.00;6.85;;;19.40;78.50;;;;;;4977557;28;20039;-66
2023/07/26 03:01:57;;;;;;;10.48;6.05;;;19.40;78.50;;;;;;4978668;28;20034;-64
2023/07/26 03:04:23;;;;;;;10.02;5.60;;;19.30;78.50;;;;;;4978933;28;20022;-64
2023/07/26 03:06:51;;;;;;;9.90;6.40;;;19.30;78.60;;;;;;4978331;28;20130;-63
2023/07/26 03:09:17;;;;;;;11.23;5.78;;;19.30;78.70;;;;;;4992688;28;20050;-62
2023/07/26 03:11:43;;;;;;;9.50;6.22;;;19.40;78.70;;;;;;5017438;28;20022;-62
2023/07/26 03:14:09;;;;;;;9.38;5.47;;;19.40;78.60;;;;;;5017795;28;20432;-66
2023/07/26 03:16:35;;;;;;;9.77;5.85;;;19.40;78.60;;;;;;5017758;28;20026;-64
2023/07/26 03:19:01;;;;;;;11.13;6.35;;;19.30;78.60;;;;;;5017008;28;20030;-62
2023/07/26 03:21:27;;;;;;;10.07;5.57;;;19.30;78.60;;;;;;5017718;28;20033;-66
2023/07/26 03:23:53;;;;;;;9.32;5.85;;;19.30;78.60;;;;;;5016154;28;20034;-63
2023/07/26 03:26:19;;;;;;;8.43;5.25;;;19.20;78.60;;;;;;5017019;28;20030;-62
2023/07/26 03:28:45;;;;;;;9.65;5.75;;;19.20;78.70;;;;;;5017522;28;20408;-61
2023/07/26 03:31:11;;;;;;;9.48;5.20;;;19.20;78.70;;;;;;5017538;28;20101;-61
2023/07/26 03:33:37;;;;;;;10.40;6.38;;;19.20;78.70;;;;;;5016970;28;20033;-63
2023/07/26 03:36:04;;;;;;;10.70;6.22;;;19.20;78.70;;;;;;5017139;28;20029;-61
2023/07/26 03:38:30;;;;;;;11.32;6.05;;;19.10;78.60;;;;;;5017332;28;20025;-63
2023/07/26 03:40:56;;;;;;;8.90;5.95;;;19.10;78.60;;;;;;5016801;28;20442;-65
2023/07/26 03:43:22;;;;;;;11.90;6.32;;;19.10;78.60;;;;;;5017196;28;20087;-64
2023/07/26 03:45:48;;;;;;;8.95;6.05;;;19.00;78.60;;;;;;5017154;28;20109;-64
2023/07/26 03:48:17;;;;;;;9.07;5.20;;;19.00;78.70;;;;;;5017197;28;20022;-66
2023/07/26 03:50:43;;;;;;;8.90;4.75;;;18.90;78.70;;;;;;5016590;28;20445;-63
2023/07/26 03:53:09;;;;;;;8.65;5.03;;;19.00;78.60;;;;;;5016786;28;20044;-64
2023/07/26 03:55:35;;;;;;;8.10;4.85;;;19.00;78.60;;;;;;5016742;28;20025;-64
2023/07/26 03:58:01;;;;;;;11.10;5.03;;;19.00;78.60;;;;;;5016758;28;20034;-63
2023/07/26 04:00:27;;;;;;;8.43;4.85;;;19.00;78.50;;;;;;5016969;28;20022;-62
2023/07/26 04:02:53;;;;;;;5.78;3.88;;;19.00;78.50;;;;;;5016336;28;20105;-65
2023/07/26 04:05:19;;;;;;;7.45;4.13;;;19.00;78.50;;;;;;5016498;28;20026;-61
2023/07/26 04:07:45;;;;;;;6.28;3.97;;;19.00;78.50;;;;;;5016582;28;20026;-63
2023/07/26 04:10:11;;;;;;;6.88;3.97;;;19.00;78.50;;;;;;5016227;28;20041;-67
2023/07/26 04:12:38;;;;;;;6.80;4.10;;;19.10;78.40;;;;;;5016215;28;20097;-65
2023/07/26 04:15:04;;;;;;;8.15;4.00;;;19.10;78.40;;;;;;5016230;28;20388;-61
2023/07/26 04:17:30;;;;;;;5.90;3.88;;;19.10;78.30;;;;;;5016072;28;20135;-62
2023/07/26 04:19:56;;;;;;;5.10;3.70;;;19.20;78.30;;;;;;5016344;28;20018;-65
2023/07/26 04:22:22;;;;;;;7.32;3.65;;;19.20;78.20;;;;;;5016231;28;20088;-64
2023/07/26 04:24:48;;;;;;;6.10;3.40;;;19.20;78.10;;;;;;5016002;28;20026;-66
2023/07/26 04:27:14;;;;;;;5.45;3.47;;;19.30;78.00;;;;;;5016477;28;20103;-60
2023/07/26 04:29:42;;;;;;;5.97;3.50;;;19.30;77.80;;;;;;5015877;28;20034;-62
2023/07/26 04:32:08;;;;;;;8.02;3.25;;;19.30;77.60;;;;;;5016035;28;20084;-60
2023/07/26 04:34:34;;;;;;;4.82;3.10;;;19.40;77.40;;;;;;5015857;28;20030;-60
2023/07/26 04:37:00;;;;;;;4.20;2.60;;;19.40;77.20;;;;;;5015781;28;20084;-66
2023/07/26 04:39:26;;;;;;;4.85;2.67;;;19.40;77.00;;;;;;5016040;28;20044;-61
2023/07/26 04:41:53;;;;;;;4.68;2.92;;;19.60;76.90;;;;;;5015658;28;20080;-61
2023/07/26 04:44:19;;;;;;;4.82;2.80;;;20.20;76.50;;;;;;5015752;28;20101;-63
2023/07/26 04:46:45;;;;;;;4.88;2.50;;;21.10;75.30;;;;;;5015795;28;20084;-61
2023/07/26 04:49:11;;;;;;;4.10;2.35;;;22.10;73.70;;;;;;5015669;28;20458;-67
2023/07/26 04:51:37;;;;;;;4.25;2.75;;;23.00;71.60;;;;;;5015814;28;20190;-68
2023/07/26 04:54:05;;;;;;;4.30;2.25;;;23.90;69.60;;;;;;5015839;28;20418;-66
2023/07/26 04:56:32;;;;;;;3.30;2.40;;;24.80;67.80;;;;;;5015412;28;20460;-64
2023/07/26 04:58:58;;;;;;;4.38;2.30;;;25.80;65.90;;;;;;5015530;28;20030;-63
2023/07/26 05:01:24;;;;;;;5.15;2.40;;;26.70;64.00;;;;;;5015465;28;20329;-60
2023/07/26 05:03:50;;;;;;;4.80;2.40;;;27.50;62.10;;;;;;5015638;28;20030;-65
2023/07/26 05:06:16;;;;;;;5.30;2.40;;;28.40;60.30;;;;;;5015607;28;20061;-65
2023/07/26 05:08:42;;;;;;;3.53;2.20;;;29.30;58.40;;;;;;5015222;28;20022;-65
2023/07/26 05:11:08;;;;;;;3.95;2.30;;;30.10;56.40;;;;;;5015722;28;20022;-64
2023/07/26 05:13:34;;;;;;;4.97;2.42;;;30.90;54.80;;;;;;5015686;28;20048;-67
2023/07/26 05:16:00;;;;;;;4.10;2.47;;;31.80;53.00;;;;;;5015671;28;20053;-66
2023/07/26 05:18:26;;;;;;;4.50;2.40;;;32.50;50.60;;;;;;5014352;28;20052;-64
2023/07/26 05:20:52;;;;;;;4.35;2.47;;;33.20;48.10;;;;;;5015310;28;20026;-66
2023/07/26 05:23:19;;;;;;;3.67;2.30;;;33.80;46.70;;;;;;5015492;28;20025;-64
2023/07/26 05:25:45;;;;;;;20.38;2.80;;;34.40;45.90;;;;;;5015182;28;20037;-64
2023/07/26 05:28:17;;;;;;;10.07;2.30;;;35.00;44.80;;;;;;5015519;28;20448;-63
2023/07/26 05:30:44;;;;;;;10.82;2.40;;;35.70;43.90;;;;;;5015776;28;20475;-66
2023/07/26 05:33:16;;;;;;;5.05;2.08;;;36.40;42.80;;;;;;5014209;28;20040;-61
2023/07/26 05:35:42;;;;;;;4.85;2.10;;;37.10;42.00;;;;;;5015408;28;20042;-65
2023/07/26 05:38:09;;;;;;;3.55;2.05;;;37.70;40.90;;;;;;5015679;28;20033;-60
2023/07/26 05:40:35;;;;;;;4.05;2.25;;;38.40;39.70;;;;;;5015119;28;20514;-65
2023/07/26 05:43:02;;;;;;;5.22;2.17;;;39.00;38.70;;;;;;5017644;28;20029;-64
2023/07/26 05:45:29;;;;;;;3.72;1.83;;;39.60;37.60;;;;;;5019446;28;20030;-62
2023/07/26 05:47:55;;;;;;;3.08;1.90;;;40.10;36.90;;;;;;5019469;28;20100;-64
2023/07/26 05:50:34;;;;;;;3.53;1.90;;;40.60;36.30;;;;;;5018920;28;20053;-62
2023/07/26 05:53:00;;;;;;;3.13;2.00;;;41.00;35.70;;;;;;5018860;28;20026;-61
2023/07/26 05:55:27;;;;;;;7.28;1.90;;;41.40;34.90;;;;;;5018762;28;20024;-60
2023/07/26 05:57:55;;;;;;;3.38;1.90;;;41.80;34.50;;;;;;5019045;28;20045;-62
2023/07/26 06:00:26;;;;;;;1.60;1.50;;;42.20;33.70;;;;;;5018916;28;20025;-61
2023/07/26 06:02:55;;;;;;;2.28;1.23;;;42.60;31.90;;;;;;5018491;28;20099;-63
2023/07/26 06:05:21;;;;;;;1.80;1.27;;;43.20;30.70;;;;;;5019101;28;20022;-62
2023/07/26 06:07:49;;;;;;;2.63;1.40;;;43.70;30.70;;;;;;5019115;28;20065;-62
2023/07/26 06:10:16;;;;;;;2.30;1.40;;;44.20;29.00;;;;;;5018350;28;20038;-64
2023/07/26 06:12:42;;;;;;;2.83;1.10;;;44.70;28.60;;;;;;5018469;28;20038;-63
2023/07/26 06:15:09;;;;;;;3.28;1.13;;;45.10;27.90;;;;;;5018989;28;20033;-61
2023/07/26 06:17:35;;;;;;;1.83;1.00;;;45.50;27.70;;;;;;5018309;28;20105;-59
2023/07/26 06:20:03;;;;;;;2.85;0.88;;;45.60;27.60;;;;;;5018368;28;20402;-60
2023/07/26 06:22:29;;;;;;;3.35;1.05;;;45.70;27.10;;;;;;5018433;28;20459;-63
2023/07/26 06:24:55;;;;;;;4.30;1.30;;;45.90;26.60;;;;;;5018305;28;20060;-61
2023/07/26 06:27:22;;;;;;;1.48;1.10;;;46.40;26.00;;;;;;5018148;28;20037;-61
2023/07/26 06:29:49;;;;;;;0.90;0.70;;;46.70;26.30;;;;;;5018140;28;20136;-62
2023/07/26 06:32:15;;;;;;;2.13;1.05;;;47.10;26.20;;;;;;5018168;28;20029;-62
2023/07/26 06:34:41;;;;;;;2.22;0.93;;;47.40;26.00;;;;;;5018072;28;20030;-63
2023/07/26 06:37:07;;;;;;;3.55;1.20;;;47.90;25.30;;;;;;5017911;28;20038;-61
2023/07/26 06:39:33;;;;;;;2.03;1.02;;;48.30;24.70;;;;;;5018010;28;20101;-61
2023/07/26 06:41:59;;;;;;;2.88;1.02;;;48.70;24.60;;;;;;5017917;28;20133;-59
2023/07/26 06:44:25;;;;;;;1.63;0.90;;;49.00;24.40;;;;;;5016952;28;20412;-60
2023/07/26 06:46:51;;;;;;;1.85;0.95;;;49.20;24.10;;;;;;5018283;28;20060;-62
2023/07/26 06:49:17;;;;;;;1.30;0.90;;;49.40;23.50;;;;;;5018358;28;20026;-61
2023/07/26 06:51:43;;;;;;;2.00;1.10;;;49.50;23.10;;;;;;5018102;28;20101;-62
2023/07/26 06:54:10;;;;;;;1.85;0.80;;;49.60;22.70;;;;;;5017003;28;20444;-63
2023/07/26 06:56:36;;;;;;;1.35;1.10;;;49.30;22.70;;;;;;5017721;28;20053;-62
2023/07/26 06:59:11;;;;;;;4.10;1.30;;;48.20;23.20;;;;;;5017852;28;20048;-59
2023/07/26 07:01:37;;;;;;;2.17;1.10;;;46.50;24.30;;;;;;5017880;28;20105;-61
2023/07/26 07:04:03;;;;;;;1.90;1.15;;;44.40;25.60;;;;;;5017737;28;20392;-63
2023/07/26 07:06:29;;;;;;;1.10;0.98;;;42.50;27.20;;;;;;5017662;28;20037;-62
2023/07/26 07:08:55;;;;;;;2.78;1.10;;;40.90;28.90;;;;;;5017632;28;20065;-59
2023/07/26 07:11:21;;;;;;;1.70;1.13;;;39.50;30.70;;;;;;5017961;28;20101;-61
2023/07/26 07:13:47;;;;;;;1.52;1.27;;;38.30;32.10;;;;;;5017852;28;20423;-61
2023/07/26 07:16:13;;;;;;;1.75;1.10;;;37.30;33.40;;;;;;5017296;28;20499;-62
2023/07/26 07:18:39;;;;;;;1.98;1.10;;;36.60;34.50;;;;;;5017258;28;20065;-63
2023/07/26 07:21:05;;;;;;;1.10;0.75;;;35.90;35.40;;;;;;5017249;28;20423;-60
2023/07/26 07:23:31;;;;;;;1.90;1.00;;;35.30;36.10;;;;;;5017617;28;20182;-63
2023/07/26 07:25:57;;;;;;;1.75;1.35;;;34.90;36.70;;;;;;5016418;28;20069;-61
2023/07/26 07:28:24;;;;;;;2.42;1.30;;;34.50;37.30;;;;;;5017633;28;20112;-64
2023/07/26 07:30:50;;;;;;;2.90;1.33;;;34.10;38.00;;;;;;5017248;28;20068;-64
2023/07/26 07:33:16;;;;;;;1.60;1.40;;;33.80;38.50;;;;;;5017078;28;20025;-58
2023/07/26 07:35:42;;;;;;;0.93;0.90;;;33.60;38.70;;;;;;5013562;28;20037;-59
2023/07/26 07:38:08;;;;;;;3.00;1.50;;;33.30;39.10;;;;;;5016913;28;20063;-62
2023/07/26 07:40:34;;;;;;;2.53;1.50;;;33.10;39.60;;;;;;5016851;28;20483;-63
2023/07/26 07:43:02;;;;;;;2.20;1.45;;;33.00;39.80;;;;;;5016724;28;20021;-60
2023/07/26 07:45:28;;;;;;;4.30;1.35;;;33.00;39.80;;;;;;5016630;28;20057;-60
2023/07/26 07:47:54;;;;;;;5.15;2.10;;;32.90;39.80;;;;;;5016611;28;20030;-59
2023/07/26 07:50:20;;;;;;;1.80;1.33;;;32.60;39.40;;;;;;5016710;28;20029;-62
2023/07/26 07:52:48;;;;;;;1.92;1.60;;;32.40;40.00;;;;;;5017178;28;20025;-61
2023/07/26 07:55:14;;;;;;;2.67;1.27;;;32.30;40.30;;;;;;5016853;28;20018;-63
2023/07/26 07:57:41;;;;;;;2.45;1.50;;;32.20;40.70;;;;;;5016361;28;20474;-59
2023/07/26 08:00:09;;;;;;;4.97;1.70;;;32.20;40.30;;;;;;5016387;28;20452;-62
2023/07/26 08:02:35;;;;;;;2.72;1.50;;;32.10;40.50;;;;;;5016548;28;20084;-61
2023/07/26 08:05:01;;;;;;;2.47;1.75;;;32.10;40.70;;;;;;5016365;28;20018;-62
2023/07/26 08:07:27;;;;;;;4.00;1.75;;;32.00;40.70;;;;;;5016817;28;20028;-63
2023/07/26 08:09:53;;;;;;;2.50;1.70;;;31.90;39.90;;;;;;5016307;28;20511;-60
2023/07/26 08:12:19;;;;;;;2.70;1.55;;;31.80;39.30;;;;;;5015583;28;20116;-62
2023/07/26 08:14:54;;;;;;;3.88;1.80;;;31.50;39.90;;;;;;5016821;28;20025;-63
2023/07/26 08:17:20;;;;;;;1.75;1.30;;;31.30;40.10;;;;;;5016016;28;20364;-62
2023/07/26 08:19:46;;;;;;;3.25;1.35;;;31.20;40.60;;;;;;5016083;28;20053;-60
2023/07/26 08:22:12;;;;;;;3.58;1.70;;;31.20;40.30;;;;;;5017353;28;20026;-61
2023/07/26 08:24:38;;;;;;;2.22;1.60;;;31.10;40.10;;;;;;5017963;28;20032;-64
2023/07/26 08:27:06;;;;;;;3.08;1.60;;;31.00;40.50;;;;;;5017527;28;20117;-61
2023/07/26 08:29:32;;;;;;;1.45;1.30;;;30.90;39.80;;;;;;5017752;28;20056;-62
2023/07/26 08:31:58;;;;;;;3.00;1.30;;;30.80;40.60;;;;;;5000038;28;20022;-59
2023/07/26 08:34:24;;;;;;;1.60;1.30;;;30.80;40.00;;;;;;5016134;28;20030;-60
2023/07/26 08:36:51;;;;;;;1.35;1.20;;;30.60;40.40;;;;;;5015883;28;20022;-62
2023/07/26 08:39:17;;;;;;;3.97;2.05;;;30.70;40.50;;;;;;5016376;28;20033;-61
2023/07/26 08:41:43;;;;;;;1.90;1.63;;;30.60;40.30;;;;;;5015784;28;20014;-61
2023/07/26 08:44:09;;;;;;;2.15;1.40;;;30.60;40.60;;;;;;5015974;28;20043;-60
2023/07/26 08:46:41;;;;;;;1.92;1.40;;;30.60;41.00;;;;;;5015714;28;20022;-61
2023/07/26 08:49:07;;;;;;;2.35;1.63;;;30.60;40.50;;;;;;5015775;28;20022;-61
2023/07/26 08:51:34;;;;;;;2.88;1.63;;;30.50;40.80;;;;;;5016202;28;20017;-64
2023/07/26 08:54:00;;;;;;;2.17;1.33;;;30.50;40.50;;;;;;5015852;28;20102;-62
2023/07/26 08:56:29;;;;;;;4.32;2.05;;;30.50;40.70;;;;;;5015757;28;20523;-61
2023/07/26 08:58:54;;;;;;;2.30;1.60;;;30.50;40.80;;;;;;5015627;28;20109;-61
2023/07/26 09:01:22;;;;;;;3.53;1.77;;;30.50;41.10;;;;;;5014568;28;20157;-61
2023/07/26 09:03:51;;;;;;;4.43;1.65;;;30.60;41.20;;;;;;5015988;28;20045;-64
2023/07/26 09:06:19;;;;;;;3.00;1.55;;;30.60;41.50;;;;;;5015925;28;20014;-62
2023/07/26 09:08:52;;;;;;;3.10;1.77;;;30.60;41.20;;;;;;5015341;28;20107;-63
2023/07/26 09:11:20;;;;;;;2.90;2.00;;;30.60;40.90;;;;;;5015801;28;20029;-61
2023/07/26 09:13:57;;;;;;;2.45;1.80;;;30.50;40.40;;;;;;5013661;28;20073;-65
2023/07/26 09:16:31;;;;;;;2.50;1.45;;;30.30;40.30;;;;;;5013736;28;20022;-62
2023/07/26 09:19:01;;;;;;;1.77;1.55;;;30.10;40.40;;;;;;5015338;28;20364;-64
2023/07/26 09:21:30;;;;;;;3.83;1.60;;;30.00;40.30;;;;;;5015874;28;20029;-64
2023/07/26 09:24:03;;;;;;;2.28;1.50;;;29.90;40.60;;;;;;5015524;28;20113;-65
2023/07/26 09:26:40;;;;;;;2.38;1.52;;;29.90;40.90;;;;;;5015190;28;20033;-62
2023/07/26 09:29:08;;;;;;;2.67;1.48;;;29.90;40.80;;;;;;5016087;28;20037;-64
2023/07/26 09:31:35;;;;;;;2.20;1.10;;;29.90;40.50;;;;;;5015270;28;20051;-62
2023/07/26 09:34:07;;;;;;;2.15;1.48;;;29.90;40.50;;;;;;5014232;28;20034;-63
2023/07/26 09:36:47;;;;;;;1.65;1.27;;;29.90;40.00;;;;;;5015171;28;20081;-63
2023/07/26 09:39:15;;;;;;;2.22;1.55;;;29.90;40.20;;;;;;5014270;28;20436;-63
2023/07/26 09:41:46;;;;;;;3.60;1.42;;;29.80;40.10;;;;;;5015452;28;20096;-62
2023/07/26 09:44:20;;;;;;;3.50;1.42;;;29.80;39.70;;;;;;5015045;28;20355;-62
2023/07/26 09:46:51;;;;;;;1.45;1.20;;;29.70;39.50;;;;;;5015299;28;20022;-64
2023/07/26 09:49:19;;;;;;;1.90;1.20;;;29.70;39.30;;;;;;5015492;28;20088;-63
2023/07/26 09:51:45;;;;;;;1.63;1.15;;;29.60;39.50;;;;;;5014131;28;20356;-62
2023/07/26 09:54:13;;;;;;;2.20;1.63;;;29.70;39.10;;;;;;5014075;28;20483;-62
2023/07/26 10:01:39;;;;;;;1.70;1.15;;;29.90;39.50;;;;;;5015501;28;20376;-61
2023/07/26 10:04:09;;;;;;;3.58;1.45;;;29.90;39.90;;;;;;5013971;28;20105;-63
2023/07/26 10:06:36;;;;;;;1.65;1.05;;;29.80;40.30;;;;;;5014907;28;20037;-64
2023/07/26 10:09:02;;;;;;;1.88;1.40;;;29.80;40.50;;;;;;5014732;28;20045;-60
2023/07/26 10:11:29;;;;;;;3.53;1.60;;;29.80;40.40;;;;;;5014306;28;20030;-64
2023/07/26 10:14:00;;;;;;;1.67;1.08;;;29.70;40.70;;;;;;5015420;28;20033;-61
2023/07/26 10:16:36;;;;;;;2.22;1.30;;;29.70;41.00;;;;;;5014952;28;20476;-63
2023/07/26 10:19:13;;;;;;;3.72;1.80;;;29.60;41.40;;;;;;5015361;28;20025;-60
2023/07/26 10:21:40;;;;;;;1.45;1.35;;;29.60;41.60;;;;;;5015338;28;20053;-62
2023/07/26 10:24:07;;;;;;;1.85;1.10;;;29.60;41.80;;;;;;5015154;28;20325;-63
2023/07/26 10:26:36;;;;;;;1.88;1.30;;;29.70;41.80;;;;;;5015250;28;20097;-62
2023/07/26 10:29:03;;;;;;;1.38;1.15;;;29.90;41.50;;;;;;5016442;28;20037;-63
2023/07/26 10:31:30;;;;;;;1.90;1.60;;;29.90;40.80;;;;;;5017603;28;20048;-63
2023/07/26 10:33:57;;;;;;;2.45;1.40;;;29.90;40.90;;;;;;5018695;28;20057;-62
2023/07/26 10:36:34;;;;;;;2.00;1.40;;;29.80;41.10;;;;;;5018046;28;20137;-61
2023/07/26 10:39:07;;;;;;;3.38;1.52;;;29.80;41.10;;;;;;5017093;28;20026;-62
2023/07/26 10:41:35;;;;;;;1.87;1.20;;;29.70;40.20;;;;;;5017995;28;20448;-63
2023/07/26 10:44:11;;;;;;;1.35;1.20;;;29.60;40.10;;;;;;5016972;28;20121;-64
2023/07/26 10:46:52;;;;;;;1.30;1.20;;;29.60;40.30;;;;;;5017370;28;20026;-63
2023/07/26 10:49:33;;;;;;;1.98;1.60;;;29.50;40.20;;;;;;5017921;28;20018;-64
2023/07/26 10:52:01;;;;;;;3.83;1.70;;;29.50;39.50;;;;;;5018184;28;20022;-61
2023/07/26 10:54:48;;;;;;;2.53;1.40;;;29.40;40.10;;;;;;5017716;28;20017;-61
2023/07/26 10:57:31;;;;;;;2.03;1.30;;;29.40;40.60;;;;;;5017623;28;20080;-63
2023/07/26 11:00:10;;;;;;;2.35;1.50;;;29.40;40.90;;;;;;5017735;28;20050;-65
2023/07/26 11:05:22;;;;;;;1.73;1.55;;;29.40;41.70;;;;;;5018087;28;20036;-61
2023/07/26 11:08:01;;;;;;;2.08;1.50;;;29.40;41.50;;;;;;5017547;28;20026;-62
2023/07/26 11:10:29;;;;;;;1.85;1.33;;;29.30;41.60;;;;;;5016448;28;20132;-65
2023/07/26 11:13:30;;;;;;;1.38;1.27;;;29.20;41.40;;;;;;5017694;28;20045;-63
2023/07/26 11:16:05;;;;;;;3.28;1.17;;;29.10;41.60;;;;;;5017322;28;20030;-63
2023/07/26 11:18:40;;;;;;;1.55;1.17;;;29.10;41.20;;;;;;5017243;28;20026;-63
2023/07/26 11:21:16;;;;;;;1.95;1.27;;;29.00;41.00;;;;;;5017830;28;20072;-63
2023/07/26 11:23:46;;;;;;;1.67;1.10;;;29.00;41.20;;;;;;5017088;28;20403;-62
2023/07/26 11:26:17;;;;;;;1.95;1.40;;;28.90;41.20;;;;;;5017559;28;20475;-63
2023/07/26 11:28:47;;;;;;;1.00;0.90;;;28.90;41.40;;;;;;5017042;28;20080;-65
2023/07/26 11:31:18;;;;;;;1.90;0.90;;;28.90;42.00;;;;;;5017351;28;20340;-64
2023/07/26 11:33:47;;;;;;;1.83;1.20;;;29.00;42.10;;;;;;5016103;28;20099;-65
2023/07/26 11:36:20;;;;;;;1.80;1.23;;;29.10;41.80;;;;;;5016831;28;20044;-63
2023/07/26 11:38:46;;;;;;;2.22;1.38;;;29.20;41.70;;;;;;5016121;28;20022;-62
2023/07/26 11:41:19;;;;;;;2.28;1.35;;;29.20;41.30;;;;;;5016792;28;20036;-60
2023/07/26 11:43:50;;;;;;;2.50;1.40;;;29.20;41.60;;;;;;5015913;28;20025;-65
2023/07/26 11:46:29;;;;;;;2.40;1.23;;;29.20;41.50;;;;;;5016741;28;20113;-61
2023/07/26 11:48:55;;;;;;;2.03;1.40;;;29.20;41.10;;;;;;5016728;28;20037;-63
2023/07/26 11:51:21;;;;;;;2.45;1.30;;;29.20;40.80;;;;;;5017264;28;20033;-62
2023/07/26 11:53:54;;;;;;;2.95;1.30;;;29.10;40.40;;;;;;5017216;28;20487;-60
2023/07/26 11:56:33;;;;;;;2.00;1.13;;;29.00;40.30;;;;;;5016555;28;20037;-63
2023/07/26 11:59:04;;;;;;;2.13;1.33;;;28.90;39.40;;;;;;5016543;28;20030;-63
2023/07/26 12:01:36;;;;;;;2.17;1.30;;;28.90;40.00;;;;;;5017026;28;20353;-61
2023/07/26 12:04:13;;;;;;;1.40;1.20;;;28.90;40.60;;;;;;5016970;28;20089;-62
2023/07/26 12:06:46;;;;;;;2.15;1.20;;;29.00;40.00;;;;;;5016915;28;20075;-65
2023/07/26 12:09:14;;;;;;;1.15;0.90;;;29.10;39.90;;;;;;5016505;28;20056;-61
2023/07/26 12:11:51;;;;;;;1.55;1.45;;;29.00;40.10;;;;;;5016302;28;20397;-63
2023/07/26 12:14:21;;;;;;;1.38;1.10;;;29.10;39.90;;;;;;5015406;28;20044;-61
2023/07/26 12:16:52;;;;;;;1.90;1.20;;;29.10;39.90;;;;;;5016451;28;20033;-62
2023/07/26 12:19:23;;;;;;;2.03;1.25;;;29.20;40.00;;;;;;5016235;28;20096;-63
2023/07/26 12:21:49;;;;;;;1.45;1.00;;;29.30;40.10;;;;;;5016929;28;20030;-65
2023/07/26 12:24:16;;;;;;;1.67;1.00;;;29.30;40.10;;;;;;5016038;28;20352;-63
2023/07/26 12:26:47;;;;;;;1.33;1.00;;;29.40;40.20;;;;;;5016132;28;20444;-64
2023/07/26 12:29:17;;;;;;;2.00;1.15;;;29.50;39.10;;;;;;5015155;28;20025;-62
2023/07/26 12:31:43;;;;;;;1.50;1.17;;;29.50;38.80;;;;;;5016607;28;20160;-64
2023/07/26 12:34:12;;;;;;;1.23;0.77;;;29.40;38.30;;;;;;5016256;28;20037;-64
2023/07/26 12:36:41;;;;;;;2.80;1.20;;;29.30;38.10;;;;;;5016051;28;20468;-61
2023/07/26 12:39:08;;;;;;;1.20;1.08;;;29.30;38.20;;;;;;5015795;28;20364;-61
2023/07/26 12:41:41;;;;;;;1.42;0.90;;;29.30;38.80;;;;;;5016108;28;20057;-61
2023/07/26 12:44:09;;;;;;;2.17;1.20;;;29.20;39.20;;;;;;5015747;28;20115;-61
2023/07/26 12:46:39;;;;;;;1.40;1.00;;;29.20;39.10;;;;;;5015649;28;20022;-61
2023/07/26 12:49:07;;;;;;;2.15;1.25;;;29.20;39.20;;;;;;5015993;28;20486;-64
2023/07/26 12:51:33;;;;;;;1.27;0.95;;;29.20;39.50;;;;;;5015001;28;20040;-60
2023/07/26 12:54:02;;;;;;;1.55;1.30;;;29.30;39.10;;;;;;5015597;28;20030;-60
2023/07/26 12:56:29;;;;;;;1.55;1.02;;;29.10;39.70;;;;;;5015533;28;20022;-62